50NY weather

Old Fort Farm Airport
Hemlock, New York, United States

Public forecast

Using degrees Fahrenheit for public forecast. Weather courtesy of forecast.io.

Closest aviation weather report (METAR) to Old Fort Farm Airport

Closest report is Dansville Municipal Airport, 15.9 nm (29.4 km) SSW. Retrieved 2019/10/15 18:54 UTC (60 minutes ago):

KDSV 151854Z AUTO 15005KT 10SM CLR 16/03 A3003 RMK AO2 SLP178 T01610033

Closest aviation forecast (TAF) to Old Fort Farm Airport

Closest forecast is Greater Rochester International Airport, 18.8 nm (34.8 km) NNW. Retrieved 2019/10/15 18:22 UTC (2 hours ago):

TAF KROC 151720Z 1518/1618 23009KT P6SM FEW030 SCT250 FM160600 15010G18KT P6SM SCT250 WS020/19040KT FM160800 17013G23KT P6SM BKN120 FM161200 16018G32KT 4SM RA OVC060 FM161700 21013G23KT 4SM RA OVC020